createdAt,value
2018-05-08T00:00:09.076Z,51.12
2018-05-08T00:01:13.587Z,51.31
2018-05-08T00:02:18.426Z,51.36
2018-05-08T00:03:22.960Z,51.44
2018-05-08T00:04:27.476Z,51.73
2018-05-08T00:05:32.036Z,52.27
2018-05-08T00:06:38.088Z,52.55
2018-05-08T00:07:43.495Z,52.94
2018-05-08T00:08:48.195Z,53.11
2018-05-08T00:09:53.018Z,53.13
2018-05-08T00:10:57.855Z,53.09
2018-05-08T00:12:02.451Z,53.06
2018-05-08T00:13:07.458Z,52.97
2018-05-08T00:14:12.314Z,53.04
2018-05-08T00:15:16.973Z,53.12
2018-05-08T00:16:21.573Z,53.24
2018-05-08T00:17:26.140Z,53.40
2018-05-08T00:18:30.713Z,53.42
2018-05-08T00:19:35.696Z,53.51
2018-05-08T00:20:40.108Z,53.59
2018-05-08T00:21:44.556Z,53.75
2018-05-08T00:22:48.965Z,54.18
2018-05-08T00:23:53.403Z,54.40
2018-05-08T00:24:57.866Z,54.43
2018-05-08T00:26:03.002Z,54.45
2018-05-08T00:27:07.458Z,54.48
2018-05-08T00:28:12.160Z,54.39
2018-05-08T00:29:16.761Z,54.33
2018-05-08T00:30:21.309Z,54.36
2018-05-08T00:31:25.869Z,54.39
2018-05-08T00:32:30.712Z,54.67
2018-05-08T00:33:35.317Z,54.88
2018-05-08T00:34:39.867Z,55.39
2018-05-08T00:35:44.550Z,55.57
2018-05-08T00:36:49.076Z,55.21
2018-05-08T00:37:53.667Z,54.77
2018-05-08T00:38:58.533Z,54.42
2018-05-08T00:40:03.198Z,54.14
2018-05-08T00:41:07.918Z,54.67
2018-05-08T00:42:12.516Z,55.24
2018-05-08T00:43:17.086Z,55.25
2018-05-08T00:44:21.608Z,55.01
2018-05-08T00:45:26.424Z,54.83
2018-05-08T00:46:30.964Z,54.61
2018-05-08T00:47:35.537Z,54.32
2018-05-08T00:48:40.117Z,54.22
2018-05-08T00:49:44.715Z,54.43
2018-05-08T00:50:49.330Z,54.71
2018-05-08T00:51:54.191Z,55.02
2018-05-08T00:52:58.720Z,55.60
2018-05-08T00:54:03.297Z,55.83
2018-05-08T00:55:07.833Z,55.98
2018-05-08T00:56:13.564Z,56.31
2018-05-08T00:57:18.264Z,56.45
2018-05-08T00:58:23.483Z,56.48
2018-05-08T00:59:28.182Z,56.75
2018-05-08T01:00:33.272Z,56.89
2018-05-08T01:01:39.271Z,57.20
2018-05-08T01:02:43.877Z,57.41
2018-05-08T01:03:48.928Z,57.74
2018-05-08T01:04:54.116Z,57.78
2018-05-08T01:05:59.232Z,57.80
2018-05-08T01:07:08.763Z,57.85
2018-05-08T01:08:13.697Z,57.81
2018-05-08T01:09:23.118Z,57.70
2018-05-08T01:10:27.675Z,57.60
2018-05-08T01:11:32.863Z,57.57
2018-05-08T01:12:37.424Z,57.68
2018-05-08T01:13:42.058Z,58.17
2018-05-08T01:14:46.733Z,58.77
2018-05-08T01:15:51.395Z,58.91
2018-05-08T01:16:58.027Z,59.02
2018-05-08T01:18:03.134Z,59.10
2018-05-08T01:19:08.268Z,59.17
2018-05-08T01:20:17.164Z,59.28
2018-05-08T01:21:22.967Z,59.61
2018-05-08T01:22:28.060Z,59.66
2018-05-08T01:23:32.879Z,59.79
2018-05-08T01:24:38.034Z,59.83
2018-05-08T01:25:42.596Z,59.81
2018-05-08T01:26:47.246Z,59.92
2018-05-08T01:27:51.980Z,59.96
2018-05-08T01:28:56.949Z,59.84
2018-05-08T01:30:01.485Z,60.02
2018-05-08T01:31:06.392Z,60.26
2018-05-08T01:32:10.841Z,60.45
2018-05-08T01:33:15.518Z,60.56
2018-05-08T01:34:23.920Z,60.64
2018-05-08T01:35:28.372Z,60.73
2018-05-08T01:36:32.993Z,60.96
2018-05-08T01:37:37.968Z,60.87
2018-05-08T01:38:42.827Z,60.93
2018-05-08T01:39:47.309Z,61.02
2018-05-08T01:40:51.715Z,61.17
2018-05-08T01:41:59.023Z,61.36
2018-05-08T01:43:03.590Z,61.29
2018-05-08T01:44:08.466Z,61.28
2018-05-08T01:45:13.566Z,61.27
2018-05-08T01:46:19.494Z,61.29
2018-05-08T01:47:24.022Z,61.36
2018-05-08T01:48:28.570Z,61.64
2018-05-08T01:49:33.132Z,61.65
2018-05-08T01:50:38.443Z,61.76
2018-05-08T01:51:42.957Z,61.83
2018-05-08T01:52:47.483Z,61.73
2018-05-08T01:53:52.070Z,61.82
2018-05-08T01:54:56.570Z,61.86
2018-05-08T01:56:01.071Z,61.99
2018-05-08T01:57:06.136Z,62.12
2018-05-08T01:58:10.669Z,62.21
2018-05-08T01:59:15.315Z,62.15
2018-05-08T02:00:19.864Z,62.16
2018-05-08T02:01:24.549Z,62.22
2018-05-08T02:02:29.137Z,62.10
2018-05-08T02:03:34.157Z,61.96
2018-05-08T02:04:38.743Z,61.90
2018-05-08T02:05:43.288Z,62.03
2018-05-08T02:06:47.958Z,62.18
2018-05-08T02:07:52.460Z,62.26
2018-05-08T02:08:56.981Z,62.37
2018-05-08T02:10:01.938Z,62.55
2018-05-08T02:11:06.543Z,62.62
2018-05-08T02:12:11.152Z,62.76
2018-05-08T02:13:15.819Z,62.90
2018-05-08T02:14:20.391Z,62.89
2018-05-08T02:15:25.042Z,63.09
2018-05-08T02:16:30.148Z,63.53
2018-05-08T02:17:34.861Z,63.67
2018-05-08T02:18:39.556Z,63.78
2018-05-08T02:19:44.131Z,63.84
2018-05-08T02:20:48.882Z,63.87
2018-05-08T02:21:53.472Z,63.87
2018-05-08T02:22:58.589Z,63.84
2018-05-08T02:24:03.202Z,63.96
2018-05-08T02:25:07.766Z,64.32
2018-05-08T02:26:12.375Z,64.50
2018-05-08T02:27:16.986Z,64.44
2018-05-08T02:28:21.620Z,64.56
2018-05-08T02:29:26.561Z,64.71
2018-05-08T02:30:31.241Z,64.75
2018-05-08T02:31:35.846Z,64.79
2018-05-08T02:32:40.594Z,64.89
2018-05-08T02:33:45.181Z,64.87
2018-05-08T02:34:49.750Z,65.17
2018-05-08T02:35:54.781Z,65.39
2018-05-08T02:36:59.334Z,65.48
2018-05-08T02:38:03.940Z,65.46
2018-05-08T02:39:08.518Z,65.41
2018-05-08T02:40:13.265Z,65.33
2018-05-08T02:41:17.941Z,65.46
2018-05-08T02:42:23.003Z,65.51
2018-05-08T02:43:27.613Z,65.63
2018-05-08T02:44:32.188Z,65.56
2018-05-08T02:45:36.916Z,65.46
2018-05-08T02:46:41.484Z,65.34
2018-05-08T02:47:46.055Z,65.36
2018-05-08T02:48:51.245Z,65.26
2018-05-08T02:49:55.864Z,65.22
2018-05-08T02:51:00.440Z,65.16
2018-05-08T02:52:05.121Z,65.18
2018-05-08T02:53:09.766Z,65.15
2018-05-08T02:54:14.390Z,65.29
2018-05-08T02:55:19.502Z,65.50
2018-05-08T02:56:24.181Z,65.72
2018-05-08T02:57:28.865Z,65.77
2018-05-08T02:58:33.439Z,66.15
2018-05-08T02:59:38.035Z,66.30
2018-05-08T03:00:42.676Z,66.36
2018-05-08T03:01:47.780Z,66.40
2018-05-08T03:02:52.518Z,66.45
2018-05-08T03:03:57.137Z,66.44
2018-05-08T03:05:02.539Z,66.48
2018-05-08T03:06:07.132Z,66.48
2018-05-08T03:07:11.708Z,66.36
2018-05-08T03:08:16.799Z,66.44
2018-05-08T03:09:21.456Z,66.61
2018-05-08T03:10:26.032Z,66.67
2018-05-08T03:11:30.714Z,66.75
2018-05-08T03:12:35.494Z,66.59
2018-05-08T03:13:40.055Z,66.49
2018-05-08T03:14:45.043Z,66.58
2018-05-08T03:15:49.552Z,66.53
2018-05-08T03:16:54.202Z,66.48
2018-05-08T03:17:58.765Z,66.41
2018-05-08T03:19:03.475Z,66.33
2018-05-08T03:20:07.996Z,66.42
2018-05-08T03:21:13.004Z,66.41
2018-05-08T03:22:17.627Z,66.66
2018-05-08T03:23:22.184Z,66.71
2018-05-08T03:24:26.691Z,66.73
2018-05-08T03:25:31.199Z,66.85
2018-05-08T03:26:35.749Z,66.90
2018-05-08T03:27:40.603Z,67.08
2018-05-08T03:28:45.071Z,67.24
2018-05-08T03:29:49.593Z,67.67
2018-05-08T03:30:54.184Z,67.78
2018-05-08T03:31:58.752Z,67.80
2018-05-08T03:33:03.232Z,67.81
2018-05-08T03:34:08.072Z,67.82
2018-05-08T03:35:12.980Z,67.88
2018-05-08T03:36:17.621Z,67.98
2018-05-08T03:37:22.231Z,68.13
2018-05-08T03:38:26.701Z,68.19
2018-05-08T03:39:31.255Z,68.17
2018-05-08T03:40:36.213Z,68.23
2018-05-08T03:41:40.702Z,68.29
2018-05-08T03:42:45.296Z,68.23
2018-05-08T03:43:49.780Z,68.19
2018-05-08T03:44:54.383Z,68.19
2018-05-08T03:45:59.049Z,68.29
2018-05-08T03:47:04.191Z,68.51
2018-05-08T03:48:08.821Z,68.79
2018-05-08T03:49:13.777Z,68.93
2018-05-08T03:50:18.367Z,68.90
2018-05-08T03:51:22.974Z,68.90
2018-05-08T03:52:27.591Z,68.67
2018-05-08T03:53:32.623Z,68.62
2018-05-08T03:54:37.210Z,68.61
2018-05-08T03:55:41.767Z,68.60
2018-05-08T03:56:46.273Z,68.70
2018-05-08T03:57:50.854Z,68.75
2018-05-08T03:58:55.306Z,68.74
2018-05-08T04:00:00.364Z,68.84
2018-05-08T04:01:10.065Z,69.06
2018-05-08T04:02:19.941Z,69.26
2018-05-08T04:05:31.048Z,69.44
2018-05-08T04:06:35.721Z,69.61
2018-05-08T04:08:46.671Z,69.58
2018-05-08T04:09:51.202Z,69.60
2018-05-08T04:10:55.869Z,69.33
2018-05-08T04:12:00.874Z,69.30
2018-05-08T04:13:05.435Z,69.26
2018-05-08T04:14:10.023Z,69.40
2018-05-08T04:15:14.601Z,69.51
2018-05-08T04:16:19.177Z,69.44
2018-05-08T04:17:23.892Z,69.30
2018-05-08T04:18:28.852Z,69.11
2018-05-08T04:19:33.472Z,68.87
2018-05-08T04:20:38.073Z,68.97
2018-05-08T04:21:42.766Z,69.27
2018-05-08T04:22:47.402Z,69.31
2018-05-08T04:23:52.351Z,69.43
2018-05-08T04:24:57.430Z,69.51
2018-05-08T04:26:02.032Z,69.60
2018-05-08T04:27:06.644Z,69.65
2018-05-08T04:28:11.241Z,69.52
2018-05-08T04:29:16.040Z,69.43
2018-05-08T04:30:20.606Z,69.51
2018-05-08T04:31:25.749Z,69.43
2018-05-08T04:32:30.312Z,69.39
2018-05-08T04:33:34.907Z,69.47
2018-05-08T04:34:38.926Z,69.51
2018-05-08T04:35:43.737Z,69.72
2018-05-08T04:36:48.362Z,69.91
2018-05-08T04:37:53.574Z,69.99
2018-05-08T04:38:58.140Z,70.06
2018-05-08T04:40:02.750Z,70.11
2018-05-08T04:41:07.316Z,70.15
2018-05-08T04:42:11.881Z,70.03
2018-05-08T04:43:16.540Z,70.10
2018-05-08T04:44:21.478Z,70.22
2018-05-08T04:45:26.094Z,70.21
2018-05-08T04:46:30.689Z,70.16
2018-05-08T04:47:35.511Z,70.00
2018-05-08T04:48:40.191Z,69.93
2018-05-08T04:49:44.865Z,70.02
2018-05-08T04:50:49.821Z,70.04
2018-05-08T04:51:54.599Z,70.01
2018-05-08T04:52:59.117Z,69.97
2018-05-08T04:54:03.751Z,69.97
2018-05-08T04:55:08.462Z,69.86
2018-05-08T04:56:13.170Z,69.74
2018-05-08T04:57:18.102Z,69.63
2018-05-08T04:58:22.809Z,69.44
2018-05-08T04:59:27.379Z,69.35
2018-05-08T05:00:32.262Z,69.31
2018-05-08T05:01:37.112Z,69.30
2018-05-08T05:02:41.774Z,69.16
2018-05-08T05:03:46.802Z,69.09
2018-05-08T05:04:52.273Z,69.12
2018-05-08T05:05:56.940Z,69.14
2018-05-08T05:07:01.863Z,69.01
2018-05-08T05:08:06.638Z,68.98
2018-05-08T05:09:11.275Z,69.01
2018-05-08T05:10:15.835Z,69.10
2018-05-08T05:11:20.524Z,69.23
2018-05-08T05:12:25.134Z,69.26
2018-05-08T05:13:29.722Z,69.28
2018-05-08T05:14:34.311Z,69.39
2018-05-08T05:15:39.310Z,69.35
2018-05-08T05:16:43.919Z,69.28
2018-05-08T05:17:48.583Z,69.25
2018-05-08T05:18:53.067Z,69.23
2018-05-08T05:19:57.548Z,69.10
2018-05-08T05:21:02.117Z,69.09
2018-05-08T05:22:07.161Z,69.17
2018-05-08T05:23:11.704Z,69.20
2018-05-08T05:24:16.222Z,69.33
2018-05-08T05:25:20.722Z,69.24
2018-05-08T05:26:25.330Z,69.10
2018-05-08T05:27:29.870Z,69.00
2018-05-08T05:28:34.853Z,68.95
2018-05-08T05:29:39.362Z,68.93
2018-05-08T05:30:43.998Z,68.91
2018-05-08T05:31:48.470Z,68.83
2018-05-08T05:32:53.688Z,68.65
2018-05-08T05:33:58.264Z,68.51
2018-05-08T05:35:03.379Z,68.28
2018-05-08T05:36:07.990Z,68.04
2018-05-08T05:37:12.602Z,67.87
2018-05-08T05:38:17.210Z,67.74
2018-05-08T05:39:21.858Z,67.26
2018-05-08T05:40:26.451Z,66.95
2018-05-08T05:41:31.109Z,66.64
2018-05-08T05:42:35.859Z,66.82
2018-05-08T05:43:40.542Z,66.78
2018-05-08T05:44:45.468Z,66.67
2018-05-08T05:45:50.126Z,66.49
2018-05-08T05:46:55.041Z,66.30
2018-05-08T05:47:59.735Z,66.03
2018-05-08T05:49:04.407Z,65.66
2018-05-08T05:50:08.996Z,65.36
2018-05-08T05:51:13.626Z,65.07
2018-05-08T05:52:18.209Z,64.94
2018-05-08T05:53:23.195Z,64.87
2018-05-08T05:54:28.091Z,64.78
2018-05-08T05:55:32.690Z,64.71
2018-05-08T05:56:37.395Z,64.73
2018-05-08T05:57:42.012Z,64.59
2018-05-08T05:58:46.600Z,64.39
2018-05-08T05:59:51.620Z,64.17
2018-05-08T06:00:56.280Z,63.99
2018-05-08T06:02:00.879Z,63.88
2018-05-08T06:03:05.515Z,63.71
2018-05-08T06:04:10.179Z,63.64
2018-05-08T06:05:14.931Z,63.49
2018-05-08T06:06:19.893Z,63.43
2018-05-08T06:07:24.391Z,63.24
2018-05-08T06:08:29.211Z,63.03
2018-05-08T06:09:33.827Z,62.97
2018-05-08T06:10:38.437Z,62.76
2018-05-08T06:11:43.065Z,62.69
2018-05-08T06:12:48.075Z,62.58
2018-05-08T06:13:52.705Z,62.46
2018-05-08T06:14:58.410Z,62.48
2018-05-08T06:16:03.074Z,62.14
2018-05-08T06:17:07.738Z,62.02
2018-05-08T06:18:12.610Z,62.02
2018-05-08T06:19:17.799Z,61.91
2018-05-08T06:20:23.598Z,61.81
2018-05-08T06:21:30.291Z,61.58
2018-05-08T06:22:36.004Z,61.45
2018-05-08T06:23:40.727Z,61.37
2018-05-08T06:24:45.399Z,61.33
2018-05-08T06:25:50.403Z,61.19
2018-05-08T06:26:55.236Z,61.12
2018-05-08T06:28:00.280Z,60.92
2018-05-08T06:29:04.876Z,60.91
2018-05-08T06:30:09.399Z,60.79
2018-05-08T06:31:13.906Z,60.54
2018-05-08T06:32:18.876Z,60.32
2018-05-08T06:33:23.482Z,60.15
2018-05-08T06:34:28.008Z,60.01
2018-05-08T06:35:32.576Z,59.94
2018-05-08T06:36:37.566Z,59.82
2018-05-08T06:37:42.177Z,59.55
2018-05-08T06:38:47.354Z,59.16
2018-05-08T06:39:52.039Z,58.79
2018-05-08T06:40:56.784Z,58.72
2018-05-08T06:42:01.465Z,58.54
2018-05-08T06:43:06.116Z,57.89
2018-05-08T06:44:10.760Z,56.88
2018-05-08T06:45:15.923Z,56.90
2018-05-08T06:46:20.788Z,55.78
2018-05-08T06:47:25.439Z,55.50
2018-05-08T06:48:30.046Z,55.83
2018-05-08T06:49:34.692Z,55.24
2018-05-08T06:50:42.272Z,55.09
2018-05-08T06:51:48.100Z,54.04
2018-05-08T06:52:52.868Z,53.65
2018-05-08T06:53:57.643Z,53.36
2018-05-08T06:55:02.399Z,51.75
2018-05-08T06:56:07.011Z,51.63
2018-05-08T06:57:11.615Z,52.00
2018-05-08T06:58:17.200Z,52.02
2018-05-08T06:59:21.871Z,51.39
2018-05-08T07:00:26.603Z,51.34
2018-05-08T07:01:31.507Z,50.35
2018-05-08T07:02:36.178Z,49.18
2018-05-08T07:03:40.850Z,48.61
2018-05-08T07:04:45.805Z,48.37
2018-05-08T07:05:50.477Z,48.51
2018-05-08T07:06:55.140Z,47.93
2018-05-08T07:07:59.782Z,47.87
2018-05-08T07:09:05.227Z,47.50
2018-05-08T07:10:09.849Z,47.55
2018-05-08T07:11:15.000Z,47.54
2018-05-08T07:12:19.806Z,47.51
2018-05-08T07:13:24.588Z,47.43
2018-05-08T07:14:29.217Z,46.80
2018-05-08T07:15:33.868Z,46.23
2018-05-08T07:16:38.632Z,45.89
2018-05-08T07:17:43.766Z,45.50
2018-05-08T07:18:48.401Z,44.99
2018-05-08T07:19:53.008Z,44.98
2018-05-08T07:20:57.802Z,44.56
2018-05-08T07:22:02.723Z,44.30
2018-05-08T07:23:07.367Z,44.09
2018-05-08T07:24:12.543Z,44.13
2018-05-08T07:25:18.101Z,43.81
2018-05-08T07:26:22.796Z,43.65
2018-05-08T07:27:27.437Z,43.59
2018-05-08T07:28:32.118Z,43.55
2018-05-08T07:29:36.772Z,43.52
2018-05-08T07:30:41.869Z,43.29
2018-05-08T07:31:46.869Z,43.15
2018-05-08T07:32:51.985Z,43.18
2018-05-08T07:33:56.626Z,42.96
2018-05-08T07:35:01.363Z,42.75
2018-05-08T07:36:05.956Z,42.72
2018-05-08T07:37:11.020Z,42.80
2018-05-08T07:38:15.711Z,42.74
2018-05-08T07:39:20.359Z,42.63
2018-05-08T07:40:25.462Z,42.54
2018-05-08T07:41:30.097Z,42.51
2018-05-08T07:42:34.796Z,42.54
2018-05-08T07:43:40.602Z,42.62
2018-05-08T07:44:45.214Z,42.76
2018-05-08T07:45:50.819Z,42.74
2018-05-08T07:46:55.674Z,42.46
2018-05-08T07:48:00.287Z,42.56
2018-05-08T07:49:04.999Z,42.34
2018-05-08T07:50:10.271Z,42.08
2018-05-08T07:51:14.908Z,42.13
2018-05-08T07:52:19.588Z,41.97
2018-05-08T07:53:24.537Z,42.18
2018-05-08T07:54:29.244Z,42.07
2018-05-08T07:55:33.835Z,41.95
2018-05-08T07:56:38.945Z,41.80
2018-05-08T07:57:43.575Z,41.79
2018-05-08T07:58:48.254Z,41.92
2018-05-08T07:59:52.858Z,41.92
2018-05-08T08:00:57.540Z,41.80
2018-05-08T08:02:05.115Z,41.72
2018-05-08T08:03:10.256Z,41.76
2018-05-08T08:04:14.997Z,41.32
2018-05-08T08:05:19.607Z,40.92
2018-05-08T08:06:24.767Z,40.83
2018-05-08T08:07:29.514Z,40.90
2018-05-08T08:08:34.240Z,41.04
2018-05-08T08:09:39.267Z,40.88
2018-05-08T08:10:44.013Z,40.61
2018-05-08T08:11:48.649Z,40.55
2018-05-08T08:12:53.398Z,40.54
2018-05-08T08:13:58.807Z,40.34
2018-05-08T08:15:04.437Z,40.24
2018-05-08T08:16:09.360Z,40.13
2018-05-08T08:17:13.858Z,39.92
2018-05-08T08:18:18.460Z,39.97
2018-05-08T08:19:23.156Z,39.78
2018-05-08T08:20:27.714Z,40.02
2018-05-08T08:21:32.435Z,40.03
2018-05-08T08:22:37.427Z,40.22
2018-05-08T08:23:41.986Z,40.38
2018-05-08T08:24:46.738Z,40.20
2018-05-08T08:25:51.338Z,40.16
2018-05-08T08:26:55.875Z,39.99
2018-05-08T08:28:00.559Z,39.88
2018-05-08T08:29:05.636Z,39.96
2018-05-08T08:30:10.248Z,39.97
2018-05-08T08:31:14.989Z,40.01
2018-05-08T08:32:19.651Z,39.81
2018-05-08T08:33:24.740Z,39.67
2018-05-08T08:34:29.382Z,39.33
2018-05-08T08:35:34.870Z,39.10
2018-05-08T08:36:39.558Z,39.17
2018-05-08T08:37:44.337Z,38.99
2018-05-08T08:38:49.040Z,38.75
2018-05-08T08:39:53.731Z,38.49
2018-05-08T08:40:58.528Z,38.25
2018-05-08T08:42:04.284Z,38.70
2018-05-08T08:43:08.932Z,38.47
2018-05-08T08:44:13.640Z,38.54
2018-05-08T08:45:18.387Z,38.57
2018-05-08T08:46:23.290Z,38.39
2018-05-08T08:47:27.918Z,38.45
2018-05-08T08:48:33.017Z,38.22
2018-05-08T08:49:37.818Z,38.09
2018-05-08T08:50:42.621Z,37.69
2018-05-08T08:51:47.407Z,37.39
2018-05-08T08:52:52.091Z,37.44
2018-05-08T08:53:56.726Z,37.44
2018-05-08T08:55:01.873Z,37.44
2018-05-08T08:56:06.739Z,37.09
2018-05-08T08:57:11.411Z,36.94
2018-05-08T08:58:16.090Z,36.50
2018-05-08T08:59:20.786Z,36.77
2018-05-08T09:00:25.819Z,37.11
2018-05-08T09:01:30.547Z,37.09
2018-05-08T09:02:35.263Z,37.05
2018-05-08T09:03:39.830Z,37.22
2018-05-08T09:04:44.445Z,37.48
2018-05-08T09:05:49.000Z,37.70
2018-05-08T09:06:53.847Z,37.51
2018-05-08T09:07:58.545Z,37.37
2018-05-08T09:09:03.218Z,37.38
2018-05-08T09:10:07.450Z,37.00
2018-05-08T09:11:12.131Z,36.75
2018-05-08T09:12:16.687Z,36.48
2018-05-08T09:13:21.874Z,36.48
2018-05-08T09:14:27.633Z,36.75
2018-05-08T09:15:32.201Z,36.95
2018-05-08T09:16:36.887Z,36.97
2018-05-08T09:17:41.431Z,36.88
2018-05-08T09:18:46.355Z,36.91
2018-05-08T09:19:50.969Z,37.03
2018-05-08T09:20:55.556Z,36.96
2018-05-08T09:22:00.097Z,36.92
2018-05-08T09:23:04.822Z,36.68
2018-05-08T09:24:09.493Z,36.51
2018-05-08T09:25:14.218Z,36.38
2018-05-08T09:26:19.282Z,36.45
2018-05-08T09:27:23.954Z,35.89
2018-05-08T09:28:28.569Z,35.62
2018-05-08T09:29:33.253Z,35.62
2018-05-08T09:30:38.390Z,35.73
2018-05-08T09:31:43.032Z,35.65
2018-05-08T09:32:47.724Z,35.71
2018-05-08T09:33:52.430Z,35.52
2018-05-08T09:34:57.089Z,35.44
2018-05-08T09:36:01.744Z,35.13
2018-05-08T09:37:06.901Z,35.18
2018-05-08T09:38:11.623Z,35.20
2018-05-08T09:39:16.348Z,34.69
2018-05-08T09:40:21.088Z,34.33
2018-05-08T09:41:25.844Z,34.46
2018-05-08T09:42:30.615Z,34.53
2018-05-08T09:43:35.938Z,34.38
2018-05-08T09:44:40.597Z,34.10
2018-05-08T09:45:45.264Z,33.46
2018-05-08T09:46:50.689Z,33.13
2018-05-08T09:47:55.475Z,32.87
2018-05-08T09:49:00.127Z,33.15
2018-05-08T09:50:05.146Z,33.51
2018-05-08T09:51:10.341Z,33.71
2018-05-08T09:52:15.483Z,33.70
2018-05-08T09:53:20.072Z,33.89
2018-05-08T09:54:24.756Z,33.13
2018-05-08T09:55:29.334Z,32.92
2018-05-08T09:56:34.393Z,32.36
2018-05-08T09:57:38.943Z,32.70
2018-05-08T09:58:43.540Z,32.95
2018-05-08T09:59:48.151Z,32.97
2018-05-08T10:00:53.171Z,32.98
2018-05-08T10:01:57.936Z,33.09
2018-05-08T10:03:03.576Z,32.89
2018-05-08T10:04:09.292Z,32.46
2018-05-08T10:05:14.525Z,32.35
2018-05-08T10:06:19.131Z,32.38
2018-05-08T10:07:23.721Z,31.87
2018-05-08T10:08:28.339Z,31.89
2018-05-08T10:09:35.271Z,30.68
2018-05-08T10:10:39.985Z,30.52
2018-05-08T10:11:45.502Z,30.33
2018-05-08T10:12:50.293Z,30.12
2018-05-08T10:13:55.027Z,30.32
2018-05-08T10:14:59.749Z,30.23
2018-05-08T10:16:05.116Z,30.16
2018-05-08T10:17:09.779Z,30.37
2018-05-08T10:18:16.425Z,30.33
2018-05-08T10:19:21.829Z,30.65
2018-05-08T10:20:27.983Z,30.54
2018-05-08T10:21:33.657Z,30.00
2018-05-08T10:22:40.026Z,30.04
2018-05-08T10:23:45.087Z,29.79
2018-05-08T10:24:51.182Z,29.61
2018-05-08T10:25:56.603Z,29.67
2018-05-08T10:27:01.734Z,30.09
2018-05-08T10:28:06.338Z,30.12
2018-05-08T10:29:12.187Z,29.81
2018-05-08T10:30:16.834Z,29.99
2018-05-08T10:31:21.526Z,29.73
2018-05-08T10:32:26.303Z,29.09
2018-05-08T10:33:31.186Z,29.02
2018-05-08T10:34:37.199Z,29.23
2018-05-08T10:35:42.136Z,29.11
2018-05-08T10:36:47.818Z,29.14
2018-05-08T10:37:52.468Z,29.22
2018-05-08T10:38:57.419Z,29.15
2018-05-08T10:40:02.184Z,29.10
2018-05-08T10:41:06.863Z,28.99
2018-05-08T10:42:11.948Z,28.86
2018-05-08T10:43:16.972Z,28.74
2018-05-08T10:44:21.886Z,28.59
2018-05-08T10:45:26.482Z,28.93
2018-05-08T10:46:31.076Z,28.84
2018-05-08T10:47:35.700Z,28.26
2018-05-08T10:48:41.211Z,27.76
2018-05-08T10:49:45.851Z,27.82
2018-05-08T10:50:50.506Z,27.99
2018-05-08T10:51:55.923Z,27.87
2018-05-08T10:53:00.528Z,28.17
2018-05-08T10:54:05.475Z,28.32
2018-05-08T10:55:10.478Z,28.20
2018-05-08T10:56:15.110Z,28.25
2018-05-08T10:57:20.791Z,28.14
2018-05-08T10:58:25.425Z,27.85
2018-05-08T10:59:31.290Z,27.28
2018-05-08T11:00:35.743Z,27.23
2018-05-08T11:01:41.888Z,27.33
2018-05-08T11:02:46.408Z,27.19
2018-05-08T11:03:50.973Z,26.49
2018-05-08T11:04:57.322Z,26.80
2018-05-08T11:06:03.858Z,26.79
2018-05-08T11:07:09.695Z,26.41
2018-05-08T11:08:15.193Z,25.90
2018-05-08T11:09:19.699Z,25.52
2018-05-08T11:10:25.077Z,25.13
2018-05-08T11:11:29.688Z,25.18
2018-05-08T11:12:34.583Z,25.53
2018-05-08T11:13:39.238Z,26.10
2018-05-08T11:14:44.600Z,26.34
2018-05-08T11:15:49.210Z,26.52
2018-05-08T11:16:54.261Z,26.42
2018-05-08T11:17:59.638Z,25.69
2018-05-08T11:19:05.371Z,25.54
2018-05-08T11:20:10.190Z,25.54
2018-05-08T11:21:15.106Z,25.44
2018-05-08T11:22:19.886Z,25.62
2018-05-08T11:23:25.246Z,25.36
2018-05-08T11:24:29.821Z,25.36
2018-05-08T11:25:34.331Z,25.46
2018-05-08T11:26:39.461Z,25.66
2018-05-08T11:27:44.078Z,25.82
2018-05-08T11:28:49.748Z,26.19
2018-05-08T11:29:57.381Z,25.73
2018-05-08T11:31:02.544Z,25.81
2018-05-08T11:32:07.596Z,26.09
2018-05-08T11:33:13.183Z,26.11
2018-05-08T11:34:18.603Z,26.13
2018-05-08T11:35:23.384Z,26.19
2018-05-08T11:36:28.669Z,26.12
2018-05-08T11:37:34.187Z,26.20
2018-05-08T11:38:39.708Z,26.20
2018-05-08T11:39:44.419Z,26.11
2018-05-08T11:40:49.960Z,26.05
2018-05-08T11:41:54.732Z,25.62
2018-05-08T11:43:00.174Z,25.66
2018-05-08T11:44:05.974Z,25.35
2018-05-08T11:45:11.266Z,25.21
2018-05-08T11:46:16.325Z,25.21
2018-05-08T11:47:22.184Z,25.26
2018-05-08T11:48:27.777Z,25.76
2018-05-08T11:49:32.913Z,25.83
2018-05-08T11:50:37.733Z,25.75
2018-05-08T11:51:42.401Z,25.60
2018-05-08T11:52:47.134Z,25.62
2018-05-08T11:53:51.660Z,25.78
2018-05-08T11:54:56.531Z,25.79
2018-05-08T11:56:01.637Z,25.82
2018-05-08T11:57:06.210Z,25.86
2018-05-08T11:58:11.146Z,25.76
2018-05-08T11:59:15.780Z,26.18
2018-05-08T12:00:20.350Z,26.41
2018-05-08T12:01:25.306Z,26.30
2018-05-08T12:02:30.271Z,26.30
2018-05-08T12:03:35.000Z,26.34
2018-05-08T12:04:39.633Z,26.38
2018-05-08T12:05:44.397Z,26.60
2018-05-08T12:06:49.147Z,26.71
2018-05-08T12:07:53.990Z,26.75
2018-05-08T12:08:59.250Z,26.76
2018-05-08T12:10:04.035Z,26.63
2018-05-08T12:11:08.668Z,26.65
2018-05-08T12:12:13.350Z,26.52
2018-05-08T12:13:18.722Z,26.32
2018-05-08T12:14:24.280Z,26.81
2018-05-08T12:15:30.082Z,26.87
2018-05-08T12:16:35.222Z,26.70
2018-05-08T12:17:40.855Z,26.52
2018-05-08T12:18:47.607Z,26.44
2018-05-08T12:19:52.635Z,26.08
2018-05-08T12:20:57.521Z,26.14
2018-05-08T12:22:05.435Z,25.99
2018-05-08T12:23:10.131Z,25.90
2018-05-08T12:24:14.887Z,25.62
2018-05-08T12:25:19.837Z,25.66
2018-05-08T12:26:25.669Z,25.74
2018-05-08T12:27:30.594Z,25.58
2018-05-08T12:28:35.554Z,25.46
2018-05-08T12:29:41.265Z,25.65
2018-05-08T12:30:46.487Z,25.73
2018-05-08T12:31:51.979Z,25.79
2018-05-08T12:32:57.878Z,25.96
2018-05-08T12:34:04.004Z,26.13
2018-05-08T12:35:09.560Z,26.27
2018-05-08T12:36:15.142Z,26.21
2018-05-08T12:37:20.721Z,26.21
2018-05-08T12:38:26.736Z,26.27
2018-05-08T12:39:32.549Z,26.32
2018-05-08T12:40:37.624Z,26.22
2018-05-08T12:41:43.374Z,26.18
2018-05-08T12:42:48.629Z,25.98
2018-05-08T12:43:54.490Z,25.91
2018-05-08T12:44:59.749Z,25.65
2018-05-08T12:46:04.783Z,25.36
2018-05-08T12:47:10.897Z,25.40
2018-05-08T12:48:16.798Z,25.15
2018-05-08T12:49:21.619Z,25.45
2018-05-08T12:50:26.886Z,25.58
2018-05-08T12:51:33.809Z,25.79
2018-05-08T12:52:39.360Z,25.95
2018-05-08T12:53:44.993Z,25.97
2018-05-08T12:54:50.274Z,25.79
2018-05-08T12:55:55.144Z,25.54
2018-05-08T12:57:00.225Z,25.00
2018-05-08T12:58:05.459Z,24.80
2018-05-08T12:59:11.299Z,24.78
2018-05-08T13:00:18.890Z,24.85
2018-05-08T13:01:24.063Z,25.09
2018-05-08T13:02:30.276Z,25.08
2018-05-08T13:03:34.977Z,25.09
2018-05-08T13:04:40.368Z,25.30
2018-05-08T13:05:44.969Z,25.11
2018-05-08T13:06:49.516Z,25.21
2018-05-08T13:07:54.360Z,25.15
2018-05-08T13:08:59.011Z,24.97
2018-05-08T13:10:03.683Z,25.09
2018-05-08T13:11:08.363Z,25.33
2018-05-08T13:12:12.931Z,25.44
2018-05-08T13:13:17.578Z,25.29
2018-05-08T13:14:22.448Z,25.46
2018-05-08T13:15:27.006Z,25.32
2018-05-08T13:16:31.511Z,25.49
2018-05-08T13:17:36.134Z,25.69
2018-05-08T13:18:40.678Z,25.71
2018-05-08T13:19:45.185Z,25.75
2018-05-08T13:20:50.036Z,25.61
2018-05-08T13:21:54.696Z,25.43
2018-05-08T13:22:59.287Z,25.57
2018-05-08T13:24:03.818Z,25.57
2018-05-08T13:25:08.367Z,25.29
2018-05-08T13:26:12.946Z,25.11
2018-05-08T13:27:18.365Z,25.08
2018-05-08T13:28:22.988Z,25.13
2018-05-08T13:29:27.542Z,25.41
2018-05-08T13:30:32.103Z,25.18
2018-05-08T13:31:36.667Z,25.25
2018-05-08T13:32:41.198Z,25.24
2018-05-08T13:33:46.273Z,25.07
2018-05-08T13:34:50.956Z,25.33
2018-05-08T13:35:55.538Z,25.72
2018-05-08T13:37:00.121Z,25.85
2018-05-08T13:38:04.982Z,25.81
2018-05-08T13:39:09.593Z,25.62
2018-05-08T13:40:15.112Z,25.57
2018-05-08T13:41:20.114Z,25.51
2018-05-08T13:42:24.677Z,25.42
2018-05-08T13:43:29.863Z,25.39
2018-05-08T13:44:34.462Z,25.61
2018-05-08T13:45:39.080Z,25.56
2018-05-08T13:46:44.542Z,25.38
2018-05-08T13:47:49.134Z,25.35
2018-05-08T13:48:53.687Z,25.53
2018-05-08T13:49:58.308Z,25.73
2018-05-08T13:51:02.910Z,25.93
2018-05-08T13:52:07.507Z,25.81
2018-05-08T13:53:12.383Z,25.79
2018-05-08T13:54:17.094Z,25.80
2018-05-08T13:55:21.843Z,25.68
2018-05-08T13:56:26.501Z,25.79
2018-05-08T13:57:31.235Z,26.18
2018-05-08T13:58:36.008Z,26.50